DW6822 Weather Reports


Display with metric or nautical units.
time (UTC)temp
F
wind
direction
speed
MPH
gust
MPH
rain 1hr
in
rain 24hr
in
rain mn
in
humidity
%
barometer
mb
20190821204739 49 67 2.0 8.0 0.00 0.00 0.00 71 1028.4
20190821203447 50 29 4.0 11.0 0.00 0.00 0.00 70 1028.3
20190821201622 50 49 4.0 11.0 0.00 0.00 0.00 69 1028.4
20190821194507 51 45 5.0 13.0 0.00 0.00 0.00 66 1028.7
20190821193005 52 49 2.0 10.0 0.00 0.00 0.00 64 1028.6
20190821191624 52 38 2.0 8.0 0.00 0.00 0.00 61 1028.6
20190821184710 54 5 1.0 10.0 0.00 0.00 0.00 55 1028.6
20190821183008 55 38 3.0 10.0 0.00 0.00 0.00 52 1028.5
20190821181614 56 65 1.0 7.0 0.00 0.00 0.00 49 1028.5
20190821180001 57 47 1.0 6.0 0.00 0.00 0.00 46 1028.4
20190821174702 56 56 2.0 6.0 0.00 0.00 0.00 45 1028.3
20190821173344 56 88 0.0 1.0 0.00 0.00 0.00 45 1028.3
20190821171729 57 88 0.0 2.0 0.00 0.00 0.00 43 1028.1
20190821164621 59 88 0.0 2.0 0.00 0.00 0.00 39 1027.8
20190821163129 60 87 0.0 1.0 0.00 0.00 0.00 39 1027.7
20190821161623 62 87 0.0 0.0 0.00 0.00 0.00 37 1027.7
20190821154852 65 87 0.0 1.0 0.00 0.00 0.00 33 1027.6
20190821153004 66 95 0.0 0.0 0.00 0.00 0.00 30 1027.4
20190821151618 66 95 0.0 3.0 0.00 0.00 0.00 30 1027.2
20190821144715 68 33 0.0 5.0 0.00 0.00 0.00 29 1027.2
20190821143117 68 61 1.0 3.0 0.00 0.00 0.00 29 1027.1
20190821134636 68 65 1.0 5.0 0.00 0.00 0.00 29 1027.1
20190821133144 69 40 1.0 9.0 0.00 0.00 0.00 28 1027.2
20190821131629 69 126 0.0 2.0 0.00 0.00 0.00 29 1027.1
20190821124524 69 32 0.0 3.0 0.00 0.00 0.00 30 1027.4
20190821123007 68 99 4.0 9.0 0.00 0.00 0.00 30 1027.5
20190821121712 68 11 0.0 4.0 0.00 0.00 0.00 31 1027.6
20190821114657 68 109 2.0 8.0 0.00 0.00 0.00 31 1027.9
20190821113207 67 240 1.0 8.0 0.00 0.00 0.00 33 1028.1
20190821111740 67 86 0.0 7.0 0.00 0.00 0.00 33 1028.3
20190821110002 67 338 0.0 5.0 0.00 0.00 0.00 33 1028.5
20190821104736 66 79 2.0 7.0 0.00 0.00 0.00 33 1028.8
20190821104502 66 92 2.0 7.0 0.00 0.00 0.00 33 1028.8
20190821103149 64 10 0.0 6.0 0.00 0.00 0.00 36 1029.2
20190821101705 64 121 3.0 9.0 0.00 0.00 0.00 37 1029.4
20190821094528 61 39 0.0 6.0 0.00 0.00 0.00 43 1030.1
20190821093009 61 59 4.0 9.0 0.00 0.00 0.00 42 1030.2
20190821091700 62 32 2.0 10.0 0.00 0.00 0.00 43 1030.5
20190821084704 60 83 1.0 7.0 0.00 0.00 0.00 51 1031.1
20190821083114 58 26 0.0 7.0 0.00 0.00 0.00 55 1031.2
20190821081605 58 45 0.0 6.0 0.00 0.00 0.00 56 1031.5
20190821074501 56 331 0.0 5.0 0.00 0.00 0.00 64 1031.5
20190821073144 55 342 1.0 5.0 0.00 0.00 0.00 69 1031.6
20190821071653 53 5 0.0 5.0 0.00 0.00 0.00 73 1031.5
20190821064631 50 5 0.0 5.0 0.00 0.00 0.00 79 1031.4
20190821063003 48 16 1.0 7.0 0.00 0.00 0.00 83 1031.3
20190821061604 46 360 0.0 3.0 0.00 0.00 0.00 89 1031.1
20190821060002 45 13 0.0 0.0 0.00 0.00 0.00 93 1031.0
20190821054715 43 5 0.0 1.0 0.00 0.00 0.00 95 1030.9
20190821053157 42 5 0.0 0.0 0.00 0.00 0.00 96 1030.8
20190821051506 40 39 0.0 0.0 0.00 0.00 0.00 96 1030.5
20190821050002 39 39 0.0 0.0 0.00 0.00 0.00 95 1030.4
20190821044815 37 39 0.0 0.0 0.00 0.00 0.00 95 1030.2
20190821043145 37 49 0.0 0.0 0.00 0.00 0.00 94 1030.0
20190821041635 37 49 0.0 0.0 0.00 0.00 0.00 94 1029.8
20190821040003 38 49 0.0 0.0 0.00 0.00 0.00 94 1029.6
20190821034737 38 49 0.0 0.0 0.00 0.00 0.00 94 1029.5
20190821033209 38 49 0.0 0.0 0.00 0.00 0.00 93 1029.3
20190821031653 39 49 0.0 0.0 0.00 0.00 0.00 93 1029.2
20190821024651 39 49 0.0 2.0 0.00 0.00 0.00 93 1029.0
20190821023134 39 49 0.0 0.0 0.00 0.00 0.00 92 1028.8
20190821021625 39 49 0.0 0.0 0.00 0.00 0.00 91 1028.8
20190821014711 41 49 0.0 0.0 0.00 0.00 0.00 91 1028.6
20190821013120 41 49 0.0 0.0 0.00 0.00 0.00 90 1028.6
20190821011652 42 49 0.0 1.0 0.00 0.00 0.00 90 1028.6
20190821004622 43 51 0.0 4.0 0.00 0.00 0.00 91 1028.6
20190821003225 42 31 0.0 2.0 0.00 0.00 0.00 91 1028.7
20190821001647 42 17 0.0 2.0 0.00 0.00 0.00 91 1028.8
20190820234639 42 5 0.0 0.0 0.00 0.00 0.00 89 1028.9
20190820233148 42 10 0.0 2.0 0.00 0.00 0.00 89 1028.9
20190820231619 43 38 0.0 3.0 0.00 0.00 0.00 87 1029.0
20190820230002 44 36 0.0 2.0 0.00 0.00 0.00 86 1028.9
20190820224754 44 52 0.0 4.0 0.00 0.00 0.00 86 1028.7
20190820223115 44 36 1.0 6.0 0.00 0.00 0.00 86 1028.6
20190820221601 45 55 2.0 7.0 0.00 0.00 0.00 85 1028.5
20190820214633 45 57 2.0 8.0 0.00 0.00 0.00 84 1028.4
20190820213211 45 55 3.0 8.0 0.00 0.00 0.00 84 1028.4
20190820211715 45 51 1.0 7.0 0.00 0.00 0.00 84 1028.4